Time;durP1;ratioP1;P1;durP2;ratioP2;P2;SDS_P1;SDS_P2;PMS_P1;PMS_P2;Temp;Humidity;BMP_temperature;BMP_pressure;BME280_temperature;BME280_humidity;BME280_pressure;Samples;Min_cycle;Max_cycle;Signal;HPM_P1;HPM_P2
2022/04/07 00:01:23;;;;;;;1.45;1.00;;;;;;;8.14;100.00;96793.41;5055513;28;20396;-87
2022/04/07 00:03:50;;;;;;;3.22;1.25;;;;;;;7.68;100.00;96793.13;5067925;28;20052;-87
2022/04/07 00:06:17;;;;;;;3.10;1.13;;;;;;;7.80;100.00;96794.66;5073136;28;20052;-88
2022/04/07 00:08:43;;;;;;;2.30;1.17;;;;;;;8.16;100.00;96820.13;5073024;28;20052;-87
2022/04/07 00:11:10;;;;;;;1.77;1.00;;;;;;;7.66;100.00;96749.97;5073627;28;20052;-87
2022/04/07 00:13:37;;;;;;;3.58;1.10;;;;;;;7.94;100.00;96816.06;5068633;28;20045;-87
2022/04/07 00:16:09;;;;;;;5.63;1.40;;;;;;;7.74;100.00;96790.00;5052826;28;20124;-87
2022/04/07 00:18:36;;;;;;;3.38;1.23;;;;;;;7.66;100.00;96815.06;5052502;28;20055;-87
2022/04/07 00:21:06;;;;;;;4.15;1.38;;;;;;;7.45;100.00;96773.53;5053399;28;20053;-87
2022/04/07 00:23:33;;;;;;;2.03;1.20;;;;;;;7.23;100.00;96760.63;5065204;28;20474;-87
2022/04/07 00:26:00;;;;;;;2.75;1.17;;;;;;;7.50;100.00;96808.59;5072267;28;20059;-87
2022/04/07 00:28:27;;;;;;;2.85;1.20;;;;;;;7.06;100.00;96739.63;5072611;28;20055;-87
2022/04/07 00:30:54;;;;;;;2.42;1.20;;;;;;;7.21;100.00;96759.94;5072214;28;20048;-87
2022/04/07 00:33:20;;;;;;;3.15;1.30;;;;;;;7.01;100.00;96738.28;5072832;28;20052;-87
2022/04/07 00:35:47;;;;;;;3.83;1.40;;;;;;;7.38;100.00;96773.25;5071835;28;20064;-87
2022/04/07 00:38:14;;;;;;;2.78;1.40;;;;;;;7.23;100.00;96749.41;5073463;28;20055;-86
2022/04/07 00:40:41;;;;;;;3.45;1.30;;;;;;;7.16;100.00;96762.13;5065993;28;20406;-87
2022/04/07 00:43:07;;;;;;;2.17;1.10;;;;;;;7.01;100.00;96737.44;5061485;28;20135;-86
2022/04/07 00:45:34;;;;;;;2.40;1.10;;;;;;;7.27;100.00;96758.56;5072978;28;20041;-86
2022/04/07 00:48:01;;;;;;;4.32;1.50;;;;;;;7.06;100.00;96711.84;5068512;28;20053;-87
2022/04/07 00:50:28;;;;;;;2.83;1.30;;;;;;;7.36;100.00;96744.75;5051888;28;20071;-87
2022/04/07 00:52:58;;;;;;;2.42;1.23;;;;;;;7.12;100.00;96726.94;5059456;28;20044;-87
2022/04/07 00:55:25;;;;;;;2.50;1.20;;;;;;;7.23;100.00;96725.97;5071788;28;22143;-87
2022/04/07 00:57:53;;;;;;;3.30;1.40;;;;;;;7.52;100.00;96754.63;5072560;28;20059;-87
2022/04/07 01:00:19;;;;;;;4.18;1.20;;;;;;;7.11;100.00;96711.44;5071086;28;20135;-87
2022/04/07 01:02:46;;;;;;;2.85;1.40;;;;;;;6.96;100.00;96713.63;5072220;28;20050;-87
2022/04/07 01:05:23;;;;;;;5.07;1.40;;;;;;;7.00;100.00;96746.19;5071682;28;20055;-87
2022/04/07 01:07:50;;;;;;;2.03;1.20;;;;;;;6.65;100.00;96708.47;5072055;28;20087;-88
2022/04/07 01:10:19;;;;;;;3.88;1.40;;;;;;;6.86;100.00;96725.78;5073123;28;20053;-87
2022/04/07 01:12:46;;;;;;;3.25;1.25;;;;;;;7.23;100.00;96715.56;5070896;28;20402;-86
2022/04/07 01:15:13;;;;;;;4.00;1.50;;;;;;;7.23;100.00;96746.81;5072795;28;20049;-87
2022/04/07 01:17:40;;;;;;;3.35;1.30;;;;;;;7.07;100.00;96731.72;5071099;28;20044;-88
2022/04/07 01:20:08;;;;;;;3.95;1.45;;;;;;;7.07;100.00;96728.28;5071529;28;20048;-87
2022/04/07 01:22:36;;;;;;;2.95;1.40;;;;;;;7.32;100.00;96751.19;5071546;28;20044;-87
2022/04/07 01:25:03;;;;;;;3.70;1.40;;;;;;;6.82;100.00;96707.84;5073615;28;20094;-88
2022/04/07 01:27:30;;;;;;;4.18;1.40;;;;;;;7.11;100.00;96716.66;5072211;28;20051;-88
2022/04/07 01:30:01;;;;;;;2.88;1.35;;;;;;;6.99;100.00;96710.75;5072509;28;20482;-88
2022/04/07 01:32:40;;;;;;;4.85;1.60;;;;;;;6.95;100.00;96685.97;5074543;28;20044;-87
2022/04/07 01:35:08;;;;;;;4.55;1.60;;;;;;;7.40;100.00;96758.31;5075843;28;20064;-88
2022/04/07 01:37:37;;;;;;;4.53;2.65;;;;;;;6.84;100.00;96699.91;5075901;28;20052;-88
2022/04/07 01:40:06;;;;;;;3.35;1.35;;;;;;;6.89;100.00;96741.94;5073309;28;20056;-88
2022/04/07 01:42:35;;;;;;;3.90;1.42;;;;;;;7.19;100.00;96758.44;5060278;28;20521;-88
2022/04/07 01:45:04;;;;;;;4.10;1.60;;;;;;;6.97;100.00;96717.84;5075731;28;20063;-88
2022/04/07 01:47:34;;;;;;;2.05;1.17;;;;;;;7.44;100.00;96751.91;5075776;28;20044;-88
2022/04/07 01:50:05;;;;;;;4.07;1.30;;;;;;;6.92;100.00;96702.63;5075828;28;20054;-88
2022/04/07 01:52:34;;;;;;;5.03;1.60;;;;;;;7.22;100.00;96735.56;5075112;28;20550;-88
2022/04/07 01:55:03;;;;;;;6.03;1.60;;;;;;;7.45;100.00;96737.91;5075598;28;20098;-88
2022/04/07 01:57:33;;;;;;;5.10;1.23;;;;;;;7.13;100.00;96693.94;5076270;28;20060;-88
2022/04/07 02:00:01;;;;;;;4.22;1.50;;;;;;;6.98;100.00;96681.31;5075520;28;20067;-88
2022/04/07 02:02:28;;;;;;;2.72;1.40;;;;;;;7.17;100.00;96703.09;5076420;28;20137;-88
2022/04/07 02:05:08;;;;;;;3.30;1.42;;;;;;;6.85;100.00;96675.53;5092518;28;20054;-87
2022/04/07 02:07:37;;;;;;;4.95;1.80;;;;;;;7.20;100.00;96721.84;5076137;28;20094;-87
2022/04/07 02:10:04;;;;;;;3.17;1.40;;;;;;;6.91;100.00;96697.59;5073007;28;20482;-87
2022/04/07 02:12:33;;;;;;;3.72;1.75;;;;;;;7.15;100.00;96737.06;5056467;28;20048;-86
2022/04/07 02:14:59;;;;;;;4.60;1.58;;;;;;;6.84;100.00;96708.50;5058107;28;20053;-86
2022/04/07 02:17:26;;;;;;;5.95;1.60;;;;;;;6.56;100.00;96667.66;5055470;28;20131;-87
2022/04/07 02:19:55;;;;;;;3.47;1.55;;;;;;;6.98;100.00;96717.72;5056302;28;20696;-87
2022/04/07 02:22:23;;;;;;;3.85;1.52;;;;;;;6.75;100.00;96696.31;5056874;28;20139;-87
2022/04/07 02:24:49;;;;;;;5.70;2.00;;;;;;;6.81;100.00;96690.56;5074966;28;20406;-87
2022/04/07 02:27:16;;;;;;;4.70;1.92;;;;;;;6.59;100.00;96663.03;5086529;28;20102;-87
2022/04/07 02:29:43;;;;;;;4.50;1.70;;;;;;;6.57;100.00;96672.75;5095884;28;20623;-87
2022/04/07 02:32:13;;;;;;;5.28;1.80;;;;;;;6.65;100.00;96688.47;5093645;28;20044;-87
2022/04/07 02:34:41;;;;;;;3.58;1.70;;;;;;;6.89;100.00;96728.94;5074121;28;20056;-87
2022/04/07 02:37:08;;;;;;;4.05;1.50;;;;;;;6.96;100.00;96716.22;5070487;28;20120;-85
2022/04/07 02:39:35;;;;;;;3.83;1.70;;;;;;;6.99;100.00;96734.13;5054251;28;20397;-84
2022/04/07 02:42:03;;;;;;;3.05;1.60;;;;;;;6.76;100.00;96691.94;5054323;28;20057;-85
2022/04/07 02:44:29;;;;;;;3.97;1.73;;;;;;;7.12;100.00;96737.34;5073500;28;20139;-87
2022/04/07 02:46:56;;;;;;;4.88;1.60;;;;;;;6.92;100.00;96696.63;5076070;28;20048;-89
2022/04/07 02:49:24;;;;;;;4.18;1.50;;;;;;;6.94;100.00;96718.13;5074159;28;20048;-85
2022/04/07 02:51:51;;;;;;;9.95;2.03;;;;;;;7.06;100.00;96737.03;5075021;28;20087;-86
2022/04/07 02:54:18;;;;;;;6.85;2.28;;;;;;;6.64;100.00;96668.66;5072923;28;20048;-87
2022/04/07 02:56:46;;;;;;;7.65;2.95;;;;;;;6.93;100.00;96708.69;5073531;28;20051;-87
2022/04/07 02:59:13;;;;;;;7.10;2.40;;;;;;;6.95;100.00;96728.38;5073719;28;20059;-86
2022/04/07 03:01:40;;;;;;;9.77;2.50;;;;;;;6.73;100.00;96739.81;5073733;28;20128;-86
2022/04/07 03:04:06;;;;;;;6.47;2.60;;;;;;;6.46;100.00;96683.22;5072459;28;20072;-86
2022/04/07 03:06:33;;;;;;;5.38;1.73;;;;;;;6.40;100.00;96707.13;5071720;28;20059;-86
2022/04/07 03:09:00;;;;;;;11.30;2.63;;;;;;;6.53;100.00;96751.91;5059685;28;20051;-87
2022/04/07 03:11:27;;;;;;;4.55;1.45;;;;;;;6.18;100.00;96698.56;5073747;28;20044;-85
2022/04/07 03:13:54;;;;;;;4.68;1.70;;;;;;;6.30;100.00;96719.25;5074221;28;20060;-86
2022/04/07 03:16:21;;;;;;;9.40;1.85;;;;;;;6.04;100.00;96671.16;5073692;28;20076;-87
2022/04/07 03:18:48;;;;;;;3.67;1.48;;;;;;;6.13;100.00;96690.34;5073943;28;20045;-86
2022/04/07 03:21:14;;;;;;;3.58;1.48;;;;;;;6.26;100.00;96729.91;5074047;28;20048;-86
2022/04/07 03:23:41;;;;;;;4.97;1.70;;;;;;;6.20;100.00;96690.66;5073358;28;20470;-86
2022/04/07 03:26:08;;;;;;;3.05;1.20;;;;;;;6.19;100.00;96694.19;5072870;28;20044;-86
2022/04/07 03:28:35;;;;;;;3.25;1.25;;;;;;;6.20;100.00;96701.84;5073437;28;20127;-86
2022/04/07 03:31:01;;;;;;;2.35;1.10;;;;;;;6.33;100.00;96722.41;5073375;28;20059;-87
2022/04/07 03:33:28;;;;;;;3.45;1.10;;;;;;;6.00;100.00;96687.94;5068393;28;20529;-86
2022/04/07 03:35:55;;;;;;;2.53;1.30;;;;;;;6.04;100.00;96704.91;5052585;28;20049;-84
2022/04/07 03:38:22;;;;;;;2.05;1.10;;;;;;;5.95;100.00;96690.06;5052633;28;20083;-86
2022/04/07 03:40:49;;;;;;;1.42;1.00;;;;;;;5.95;100.00;96697.03;5060034;28;20051;-87
2022/04/07 03:43:16;;;;;;;4.32;1.20;;;;;;;6.22;100.00;96712.13;5072421;28;20472;-87
2022/04/07 03:45:43;;;;;;;2.58;1.10;;;;;;;6.37;100.00;96725.56;5074961;28;20059;-87
2022/04/07 03:48:10;;;;;;;1.80;1.00;;;;;;;6.46;100.00;96735.19;5073741;28;20056;-87
2022/04/07 03:50:37;;;;;;;3.13;1.35;;;;;;;6.21;100.00;96713.06;5072535;28;20085;-87
2022/04/07 03:53:04;;;;;;;2.65;1.30;;;;;;;6.05;100.00;96761.06;5073615;28;20402;-86
2022/04/07 03:55:31;;;;;;;3.30;1.17;;;;;;;5.95;100.00;96718.63;5073589;28;20053;-87
2022/04/07 03:57:58;;;;;;;2.40;1.30;;;;;;;6.17;100.00;96767.03;5073863;28;20056;-86
2022/04/07 04:00:28;;;;;;;3.05;1.30;;;;;;;6.00;100.00;96739.88;5072661;28;20048;-87
2022/04/07 04:02:55;;;;;;;1.80;1.13;;;;;;;5.97;100.00;96716.75;5072034;28;20052;-87
2022/04/07 04:05:22;;;;;;;2.92;1.10;;;;;;;5.73;100.00;96721.34;5072787;28;20051;-87
2022/04/07 04:07:49;;;;;;;2.80;1.25;;;;;;;5.95;100.00;96728.19;5072806;28;20048;-87
2022/04/07 04:10:15;;;;;;;3.08;1.38;;;;;;;5.98;100.00;96736.56;5074375;28;20413;-86
2022/04/07 04:12:42;;;;;;;2.65;1.30;;;;;;;5.95;100.00;96723.81;5071194;28;20481;-87
2022/04/07 04:15:09;;;;;;;2.53;1.27;;;;;;;6.15;100.00;96781.94;5073105;28;20075;-86
2022/04/07 04:17:36;;;;;;;3.17;1.30;;;;;;;5.95;100.00;96748.94;5073330;28;20049;-86
2022/04/07 04:20:03;;;;;;;2.72;1.30;;;;;;;5.54;100.00;96714.22;5072733;28;20052;-86
2022/04/07 04:22:30;;;;;;;2.55;1.13;;;;;;;5.77;100.00;96735.72;5071361;28;20045;-86
2022/04/07 04:24:57;;;;;;;2.92;1.17;;;;;;;5.38;100.00;96712.88;5072142;28;20443;-85
2022/04/07 04:27:24;;;;;;;2.45;1.20;;;;;;;5.25;100.00;96697.47;5071969;28;20055;-86
2022/04/07 04:29:50;;;;;;;2.08;1.30;;;;;;;5.68;100.00;96701.78;5073466;28;20048;-86
2022/04/07 04:32:17;;;;;;;2.45;1.10;;;;;;;5.92;100.00;96729.25;5071857;28;20044;-86
2022/04/07 04:34:44;;;;;;;3.47;1.05;;;;;;;5.83;100.00;96758.59;5068290;28;20052;-86
2022/04/07 04:37:10;;;;;;;3.00;1.30;;;;;;;5.77;100.00;96779.84;5061671;28;20467;-86
2022/04/07 04:39:38;;;;;;;2.00;1.10;;;;;;;5.26;100.00;96738.03;5071731;28;20049;-86
2022/04/07 04:42:05;;;;;;;2.72;1.20;;;;;;;5.67;100.00;96746.03;5071610;28;20049;-86
2022/04/07 04:44:32;;;;;;;2.35;1.27;;;;;;;5.74;100.00;96744.59;5063011;28;20053;-86
2022/04/07 04:46:59;;;;;;;1.85;1.00;;;;;;;5.56;100.00;96759.88;5073286;28;20474;-85
2022/04/07 04:49:26;;;;;;;2.47;1.20;;;;;;;5.10;100.00;96729.84;5064252;28;20148;-85
2022/04/07 04:51:53;;;;;;;1.55;1.05;;;;;;;5.61;100.00;96778.50;5065224;28;20132;-85
2022/04/07 04:54:20;;;;;;;3.92;1.33;;;;;;;5.33;100.00;96740.97;5064002;28;20413;-85
2022/04/07 04:56:47;;;;;;;2.75;1.20;;;;;;;5.54;100.00;96760.94;5070483;28;20044;-86
2022/04/07 04:59:14;;;;;;;1.65;1.13;;;;;;;5.46;100.00;96769.34;5062475;28;20053;-84
2022/04/07 05:01:41;;;;;;;2.58;1.10;;;;;;;5.16;100.00;96739.72;5052382;28;20049;-84
2022/04/07 05:04:08;;;;;;;2.08;1.33;;;;;;;5.43;100.00;96798.94;5068928;28;20045;-85
2022/04/07 05:06:35;;;;;;;1.60;1.08;;;;;;;5.15;100.00;96774.34;5072042;28;20135;-85
2022/04/07 05:09:01;;;;;;;2.03;1.10;;;;;;;4.97;100.00;96734.34;5072563;28;20082;-86
2022/04/07 05:11:28;;;;;;;2.42;1.00;;;;;;;5.37;100.00;96791.66;5071343;28;20070;-85
2022/04/07 05:13:55;;;;;;;1.10;1.00;;;;;;;5.30;100.00;96762.78;5071127;28;20044;-86
2022/04/07 05:16:22;;;;;;;2.17;1.00;;;;;;;5.19;100.00;96743.81;5071134;28;20051;-86
2022/04/07 05:18:49;;;;;;;3.17;1.60;;;;;;;5.30;100.00;96761.97;5063450;28;20106;-86
2022/04/07 05:21:16;;;;;;;2.65;1.20;;;;;;;5.40;100.00;96825.13;5071846;28;20040;-85
2022/04/07 05:23:43;;;;;;;3.50;1.27;;;;;;;5.57;100.00;96803.03;5066898;28;20388;-85
2022/04/07 05:26:14;;;;;;;6.13;1.40;;;;;;;5.00;100.00;96755.66;5052305;28;20049;-85
2022/04/07 05:28:41;;;;;;;9.18;1.83;;;;;;;5.18;100.00;96781.91;5067770;28;20475;-85
2022/04/07 05:31:08;;;;;;;4.68;1.63;;;;;;;5.41;100.00;96767.09;5051054;28;20045;-84
2022/04/07 05:33:35;;;;;;;8.82;2.13;;;;;;;5.56;100.00;96791.00;5062435;28;20048;-85
2022/04/07 05:36:03;;;;;;;8.82;1.80;;;;;;;5.47;100.00;96805.53;5070347;28;20095;-84
2022/04/07 05:38:29;;;;;;;7.50;2.05;;;;;;;5.75;100.00;96862.19;5065967;28;20561;-84
2022/04/07 05:40:56;;;;;;;15.75;2.10;;;;;;;5.43;100.00;96853.41;5050309;28;20132;-84
2022/04/07 05:43:23;;;;;;;13.27;2.42;;;;;;;4.99;100.00;96881.03;5065420;28;20045;-83
2022/04/07 05:45:50;;;;;;;10.18;1.98;;;;;;;4.66;100.00;96825.66;5071774;28;20052;-82
2022/04/07 05:48:17;;;;;;;13.02;3.53;;;;;;;4.85;100.00;96884.69;5069559;28;20045;-83
2022/04/07 05:50:44;;;;;;;7.93;1.85;;;;;;;4.68;100.00;96905.88;5071102;28;20585;-83
2022/04/07 05:53:11;;;;;;;9.05;1.95;;;;;;;4.42;100.00;96903.44;5068936;28;20044;-84
2022/04/07 05:55:39;;;;;;;9.70;2.00;;;;;;;4.60;100.00;96915.97;5070519;28;20522;-83
2022/04/07 05:58:07;;;;;;;15.95;2.38;;;;;;;4.41;100.00;96978.66;5069978;28;20567;-83
2022/04/07 06:00:37;;;;;;;10.65;1.85;;;;;;;4.54;100.00;96995.78;5063012;28;20059;-84
2022/04/07 06:03:04;;;;;;;8.23;1.73;;;;;;;4.31;100.00;96955.19;5069872;28;20490;-83
2022/04/07 06:05:31;;;;;;;10.73;1.80;;;;;;;4.33;100.00;96946.38;5071053;28;20391;-82
2022/04/07 06:07:59;;;;;;;8.30;2.00;;;;;;;4.48;100.00;97006.59;5057377;28;20621;-83
2022/04/07 06:10:26;;;;;;;9.32;1.80;;;;;;;4.28;100.00;97002.03;5055570;28;20059;-83
2022/04/07 06:12:55;;;;;;;8.38;2.15;;;;;;;4.06;100.00;96977.66;5062976;28;20475;-83
2022/04/07 06:15:23;;;;;;;6.10;1.60;;;;;;;3.85;100.00;97005.88;5064964;28;21192;-83
2022/04/07 06:17:50;;;;;;;8.77;1.67;;;;;;;3.39;100.00;96973.69;5061349;28;20131;-84
2022/04/07 06:20:17;;;;;;;11.25;1.80;;;;;;;3.56;100.00;97000.13;5069484;28;20044;-83
2022/04/07 06:22:44;;;;;;;7.03;1.80;;;;;;;3.94;100.00;97069.94;5062997;28;20059;-83
2022/04/07 06:25:12;;;;;;;8.50;1.65;;;;;;;3.93;100.00;97057.09;5066318;28;20102;-81
2022/04/07 06:27:41;;;;;;;11.15;2.33;;;;;;;3.87;100.00;97076.47;5066985;28;20047;-82
2022/04/07 06:30:15;;;;;;;10.10;2.38;;;;;;;3.60;100.00;97068.84;5065783;28;20047;-84
2022/04/07 06:32:43;;;;;;;9.93;2.00;;;;;;;3.97;100.00;97095.63;5067798;28;20040;-84
2022/04/07 06:35:12;;;;;;;4.25;1.50;;;;;;;3.75;100.00;97065.22;5060100;28;20414;-83
2022/04/07 06:37:54;;;;;;;10.32;1.75;;;;;;;4.28;100.00;97100.44;5072159;28;20063;-83
2022/04/07 06:40:22;;;;;;;9.43;1.58;;;;;;;4.13;100.00;97097.16;5063962;28;20183;-83
2022/04/07 06:42:51;;;;;;;9.85;2.17;;;;;;;4.08;100.00;97112.19;5063257;28;20052;-83
2022/04/07 06:45:23;;;;;;;5.45;1.60;;;;;;;3.98;100.00;97101.63;5060477;28;20052;-83
2022/04/07 06:47:50;;;;;;;9.18;2.17;;;;;;;3.80;100.00;97095.94;5063595;28;20047;-83
2022/04/07 06:50:19;;;;;;;8.93;2.33;;;;;;;3.84;100.00;97074.09;5064001;28;20398;-83
2022/04/07 06:52:48;;;;;;;15.48;3.25;;;;;;;3.77;100.00;97078.03;5063045;28;20044;-84
2022/04/07 06:55:16;;;;;;;6.38;1.90;;;;;;;3.85;100.00;97131.88;5059875;28;20058;-84
2022/04/07 06:57:55;;;;;;;9.05;2.00;;;;;;;3.83;100.00;97144.91;5070878;28;20401;-84
2022/04/07 07:00:25;;;;;;;12.07;1.98;;;;;;;3.55;100.00;97109.72;5063791;28;20044;-84
2022/04/07 07:02:53;;;;;;;10.45;2.13;;;;;;;3.99;100.00;97161.06;5065358;28;20132;-83
2022/04/07 07:05:22;;;;;;;9.68;2.10;;;;;;;3.91;100.00;97170.25;5069257;28;20049;-81
2022/04/07 07:07:52;;;;;;;10.68;2.00;;;;;;;3.84;100.00;97166.44;5065396;28;20044;-83
2022/04/07 07:10:22;;;;;;;10.88;2.00;;;;;;;4.05;100.00;97143.44;5066944;28;20056;-83
2022/04/07 07:12:49;;;;;;;9.07;2.00;;;;;;;4.15;100.00;97178.97;5065777;28;20048;-82
2022/04/07 07:15:17;;;;;;;10.75;3.45;;;;;;;3.90;100.00;97158.28;5067257;28;20090;-82
2022/04/07 07:17:44;;;;;;;12.18;2.70;;;;;;;3.92;100.00;97198.63;5062233;28;20459;-82
2022/04/07 07:20:12;;;;;;;16.58;3.47;;;;;;;4.13;100.00;97198.94;5064360;28;20056;-83
2022/04/07 07:22:41;;;;;;;25.35;4.22;;;;;;;4.28;100.00;97222.16;5068454;28;20402;-83
2022/04/07 07:25:09;;;;;;;17.70;3.20;;;;;;;3.92;100.00;97234.88;5065939;28;20056;-83
2022/04/07 07:27:46;;;;;;;12.35;3.13;;;;;;;3.90;100.00;97251.44;5060775;28;20048;-82
2022/04/07 07:30:15;;;;;;;19.67;2.90;;;;;;;3.54;100.00;97194.25;5065576;28;20164;-83
2022/04/07 07:32:45;;;;;;;16.58;2.63;;;;;;;3.97;100.00;97253.50;5062774;28;20127;-83
2022/04/07 07:35:12;;;;;;;22.90;3.58;;;;;;;4.09;100.00;97267.41;5070216;28;20411;-83
2022/04/07 07:37:59;;;;;;;12.55;3.15;;;;;;;4.19;100.00;97272.78;5064693;28;20102;-83
2022/04/07 07:40:31;;;;;;;17.27;3.88;;;;;;;3.80;100.00;97248.63;5064906;28;20074;-83
2022/04/07 07:43:00;;;;;;;36.65;4.50;;;;;;;3.86;100.00;97274.13;5067243;28;20048;-82
2022/04/07 07:45:32;;;;;;;17.05;3.45;;;;;;;4.26;100.00;97312.06;5063714;28;20052;-83
2022/04/07 07:48:27;;;;;;;9.65;2.65;;;;;;;4.07;100.00;97302.09;5067525;28;20501;-81
2022/04/07 07:50:55;;;;;;;19.05;3.95;;;;;;;4.34;100.00;97323.56;5057552;28;20049;-82
2022/04/07 07:53:24;;;;;;;16.40;3.55;;;;;;;3.96;100.00;97310.56;5061425;28;20064;-83
2022/04/07 07:55:53;;;;;;;17.45;2.60;;;;;;;3.86;100.00;97297.41;5066128;28;20084;-83
2022/04/07 07:58:23;;;;;;;10.70;2.28;;;;;;;4.25;100.00;97364.78;5066430;28;20128;-83
2022/04/07 08:00:52;;;;;;;9.85;2.65;;;;;;;3.59;100.00;97306.03;5060171;28;20128;-84
2022/04/07 08:03:18;;;;;;;16.50;3.63;;;;;;;3.61;100.00;97308.47;5061591;28;20163;-84
2022/04/07 08:05:45;;;;;;;9.20;2.25;;;;;;;3.86;100.00;97367.28;5062385;28;20059;-83
2022/04/07 08:08:12;;;;;;;13.88;3.35;;;;;;;4.05;100.00;97358.31;5068706;28;20082;-83
2022/04/07 08:10:39;;;;;;;14.18;3.25;;;;;;;4.02;100.00;97380.06;5065734;28;20832;-82
2022/04/07 08:13:06;;;;;;;10.88;2.45;;;;;;;4.17;100.00;97365.28;5059922;28;20083;-83
2022/04/07 08:15:34;;;;;;;13.93;2.47;;;;;;;4.29;100.00;97424.06;5059983;28;20055;-83
2022/04/07 08:18:04;;;;;;;13.68;2.45;;;;;;;4.05;100.00;97397.16;5063423;28;20056;-83
2022/04/07 08:20:31;;;;;;;10.70;3.53;;;;;;;4.14;100.00;97389.63;5064009;28;20146;-87
2022/04/07 08:22:58;;;;;;;10.57;3.20;;;;;;;3.95;100.00;97369.28;5064615;28;20040;-85
2022/04/07 08:25:25;;;;;;;13.32;2.58;;;;;;;4.31;100.00;97359.22;5055605;28;20049;-85
2022/04/07 08:27:55;;;;;;;14.98;2.30;;;;;;;4.43;100.00;97383.47;5069658;28;20423;-84
2022/04/07 08:30:21;;;;;;;17.15;4.40;;;;;;;4.61;100.00;97433.25;5071479;28;20079;-84
2022/04/07 08:32:48;;;;;;;10.38;3.08;;;;;;;4.16;100.00;97407.63;5065310;28;20045;-85
2022/04/07 08:35:15;;;;;;;12.32;2.70;;;;;;;4.14;100.00;97399.13;5064951;28;20056;-84
2022/04/07 08:37:43;;;;;;;13.82;2.72;;;;;;;4.50;100.00;97397.69;5063333;28;20048;-84
2022/04/07 08:40:09;;;;;;;15.23;3.50;;;;;;;4.91;100.00;97430.38;5063954;28;20140;-83
2022/04/07 08:42:36;;;;;;;12.35;3.03;;;;;;;4.55;100.00;97370.53;5058782;28;20474;-84
2022/04/07 08:45:04;;;;;;;10.25;2.67;;;;;;;4.89;100.00;97427.06;5062762;28;20049;-85
2022/04/07 08:47:34;;;;;;;18.73;5.10;;;;;;;4.99;100.00;97430.66;5059883;28;20048;-87
2022/04/07 08:50:03;;;;;;;17.70;3.38;;;;;;;4.86;100.00;97406.50;5055780;28;20486;-86
2022/04/07 08:52:32;;;;;;;13.90;4.10;;;;;;;4.94;100.00;97392.09;5065692;28;20119;-86
2022/04/07 08:54:59;;;;;;;8.55;2.20;;;;;;;5.41;100.00;97410.50;5063870;28;20535;-87
2022/04/07 08:57:27;;;;;;;10.32;2.42;;;;;;;5.22;100.00;97426.50;5081671;28;20131;-85
2022/04/07 08:59:53;;;;;;;18.88;2.75;;;;;;;5.51;100.00;97450.44;5061370;28;20052;-86
2022/04/07 09:02:23;;;;;;;13.95;2.53;;;;;;;5.52;100.00;97435.69;5067361;28;20049;-86
2022/04/07 09:04:59;;;;;;;19.67;4.70;;;;;;;6.07;100.00;97472.56;5067175;28;20116;-87
2022/04/07 09:07:33;;;;;;;17.38;2.75;;;;;;;5.89;100.00;97472.06;5058765;28;20044;-87
2022/04/07 09:10:01;;;;;;;11.05;2.88;;;;;;;6.33;100.00;97488.88;5060265;28;20127;-85
2022/04/07 09:12:28;;;;;;;17.73;3.38;;;;;;;5.92;100.00;97466.66;5069351;28;20125;-86
2022/04/07 09:14:57;;;;;;;14.77;2.25;;;;;;;6.45;100.00;97482.78;5070482;28;20147;-85
2022/04/07 09:17:28;;;;;;;14.10;2.70;;;;;;;6.18;100.00;97480.44;5067627;28;20375;-85
2022/04/07 09:19:55;;;;;;;13.77;2.80;;;;;;;6.14;100.00;97470.34;5061558;28;20063;-85
2022/04/07 09:22:30;;;;;;;22.02;3.45;;;;;;;6.10;100.00;97476.72;5066938;28;20052;-87
2022/04/07 09:25:04;;;;;;;16.27;3.55;;;;;;;6.08;100.00;97502.78;5060608;28;20052;-86
2022/04/07 09:27:30;;;;;;;25.20;3.53;;;;;;;6.19;100.00;97496.84;5077658;28;20452;-86
2022/04/07 09:30:00;;;;;;;17.23;2.63;;;;;;;6.14;100.00;97512.75;5060172;28;20430;-86
2022/04/07 09:32:29;;;;;;;15.98;2.58;;;;;;;6.01;100.00;97514.56;5057378;28;20131;-86
2022/04/07 09:35:00;;;;;;;16.83;3.17;;;;;;;5.81;100.00;97471.78;5067892;28;20136;-87
2022/04/07 09:37:29;;;;;;;21.40;3.15;;;;;;;5.85;100.00;97504.38;5065425;28;20048;-87
2022/04/07 09:40:07;;;;;;;18.98;3.55;;;;;;;6.11;100.00;97541.56;5056713;28;20071;-85
2022/04/07 09:42:35;;;;;;;20.55;2.40;;;;;;;6.20;100.00;97509.72;5055570;28;20047;-86
2022/04/07 09:45:04;;;;;;;11.55;2.53;;;;;;;6.29;100.00;97536.00;5062414;28;20044;-85
2022/04/07 09:47:52;;;;;;;12.98;3.05;;;;;;;6.19;100.00;97517.63;5065844;28;20116;-85
2022/04/07 09:50:31;;;;;;;15.25;3.05;;;;;;;6.65;100.00;97529.91;5065217;28;20413;-86
2022/04/07 09:53:00;;;;;;;10.00;2.05;;;;;;;6.40;100.00;97458.09;5053229;28;20084;-86
2022/04/07 09:55:32;;;;;;;14.38;2.50;;;;;;;6.61;100.00;97492.91;5053359;28;20048;-85
2022/04/07 09:58:00;;;;;;;16.55;2.80;;;;;;;6.24;100.00;97531.94;5053655;28;20433;-86
2022/04/07 10:00:27;;;;;;;13.82;3.20;;;;;;;6.51;100.00;97556.88;5064000;28;20167;-86
2022/04/07 10:02:56;;;;;;;12.93;2.65;;;;;;;6.88;100.00;97577.63;5056351;28;20048;-85
2022/04/07 10:05:24;;;;;;;11.80;2.30;;;;;;;6.53;100.00;97585.38;5054479;28;20056;-86
2022/04/07 10:07:52;;;;;;;18.52;2.33;;;;;;;6.15;100.00;97536.97;5064563;28;20452;-86
2022/04/07 10:10:19;;;;;;;8.60;2.00;;;;;;;5.95;100.00;97559.09;5074688;28;20135;-85
2022/04/07 10:12:46;;;;;;;12.73;2.40;;;;;;;6.40;100.00;97551.63;5074996;28;20508;-86
2022/04/07 10:15:15;;;;;;;10.95;2.33;;;;;;;6.34;100.00;97570.25;5074887;28;20068;-85
2022/04/07 10:17:42;;;;;;;10.93;3.15;;;;;;;6.37;100.00;97575.25;5074113;28;20136;-84
2022/04/07 10:20:11;;;;;;;14.65;3.17;;;;;;;6.61;100.00;97622.06;5073071;28;20127;-85
2022/04/07 10:22:59;;;;;;;7.45;1.80;;;;;;;7.10;100.00;97643.69;5074259;28;20044;-86
2022/04/07 10:25:27;;;;;;;11.10;2.28;;;;;;;7.01;100.00;97635.63;5074473;28;20062;-87
2022/04/07 10:28:02;;;;;;;11.27;2.60;;;;;;;7.81;100.00;97649.72;5075461;28;20084;-86
2022/04/07 10:30:29;;;;;;;11.38;1.90;;;;;;;7.92;94.80;97647.13;5065444;28;20059;-86
2022/04/07 10:32:58;;;;;;;10.73;1.95;;;;;;;7.94;87.77;97652.22;5057513;28;20128;-85
2022/04/07 10:35:33;;;;;;;11.25;2.35;;;;;;;7.88;86.41;97702.19;5056079;28;20540;-85
2022/04/07 10:38:03;;;;;;;12.43;2.22;;;;;;;7.75;83.96;97640.59;5054751;28;20407;-86
2022/04/07 10:40:51;;;;;;;9.75;1.75;;;;;;;7.75;81.24;97699.66;5070403;28;20100;-85
2022/04/07 10:43:27;;;;;;;16.38;2.10;;;;;;;7.78;88.13;97663.81;5075687;28;20051;-86
2022/04/07 10:46:06;;;;;;;7.78;1.88;;;;;;;7.62;91.66;97714.56;5075930;28;20048;-85
2022/04/07 10:48:34;;;;;;;8.80;2.25;;;;;;;7.47;94.32;97688.72;5074052;28;20102;-86
2022/04/07 10:51:04;;;;;;;12.40;2.25;;;;;;;7.47;93.68;97682.66;5074904;28;20056;-85
2022/04/07 10:53:34;;;;;;;9.15;1.77;;;;;;;8.23;89.29;97743.81;5075033;28;20052;-86
2022/04/07 10:56:06;;;;;;;7.90;2.33;;;;;;;7.90;86.00;97728.97;5075594;28;20050;-86
2022/04/07 10:58:47;;;;;;;10.68;2.13;;;;;;;7.89;87.10;97761.16;5074478;28;20045;-86
2022/04/07 11:01:29;;;;;;;10.85;2.10;;;;;;;7.44;86.68;97745.34;5071505;28;20049;-86
2022/04/07 11:09:53;;;;;;;9.48;2.47;;;;;;;7.98;78.69;97734.41;5074622;28;20124;-86
2022/04/07 11:12:35;;;;;;;11.95;2.05;;;;;;;8.01;72.17;97710.75;5073922;28;20056;-86
2022/04/07 11:15:02;;;;;;;11.40;1.65;;;;;;;7.83;69.40;97783.28;5071636;28;20045;-86
2022/04/07 11:17:35;;;;;;;8.00;2.20;;;;;;;8.12;68.48;97765.47;5073272;28;20045;-86
2022/04/07 11:20:04;;;;;;;10.02;1.77;;;;;;;8.42;68.01;97761.53;5073840;28;20075;-85
2022/04/07 11:22:58;;;;;;;13.63;2.53;;;;;;;8.61;69.92;97801.88;5060359;28;20079;-84
2022/04/07 11:25:30;;;;;;;13.38;3.55;;;;;;;8.50;71.93;97793.09;5054329;28;20090;-84
2022/04/07 11:28:17;;;;;;;6.90;2.08;;;;;;;7.98;75.71;97831.66;5055899;28;20414;-84
2022/04/07 11:30:53;;;;;;;7.53;1.67;;;;;;;7.63;77.02;97760.47;5070833;28;20052;-84
2022/04/07 11:36:04;;;;;;;11.32;2.08;;;;;;;8.18;80.20;97847.63;5072948;28;20050;-84
2022/04/07 11:38:33;;;;;;;8.73;2.08;;;;;;;8.39;80.75;97821.69;5069054;28;20040;-83
2022/04/07 11:41:02;;;;;;;10.77;1.80;;;;;;;8.02;80.60;97854.88;5070123;28;20048;-83
2022/04/07 11:43:31;;;;;;;8.02;1.90;;;;;;;8.66;79.08;97852.72;5071188;28;20068;-83
2022/04/07 11:45:58;;;;;;;8.27;1.98;;;;;;;8.42;70.47;97880.63;5073524;28;20474;-84
2022/04/07 11:48:45;;;;;;;8.45;1.73;;;;;;;8.64;70.17;97830.31;5072829;28;20041;-82